createdAt,value
2023-06-28T00:00:26.005Z,60.72
2023-06-28T00:02:57.050Z,60.84
2023-06-28T00:05:24.651Z,61.96
2023-06-28T00:07:51.763Z,61.87
2023-06-28T00:10:18.826Z,60.24
2023-06-28T00:12:46.052Z,59.68
2023-06-28T00:15:13.292Z,59.60
2023-06-28T00:17:43.243Z,60.14
2023-06-28T00:20:11.986Z,61.07
2023-06-28T00:22:41.122Z,61.06
2023-06-28T00:25:08.713Z,62.22
2023-06-28T00:27:36.468Z,61.79
2023-06-28T00:30:03.840Z,60.42
2023-06-28T00:32:31.255Z,59.83
2023-06-28T00:34:58.300Z,59.74
2023-06-28T00:37:26.561Z,60.06
2023-06-28T00:39:53.564Z,60.43
2023-06-28T00:42:20.712Z,61.36
2023-06-28T00:44:47.732Z,61.68
2023-06-28T00:47:14.724Z,60.26
2023-06-28T00:49:43.319Z,60.16
2023-06-28T00:52:11.415Z,59.92
2023-06-28T00:54:40.640Z,60.57
2023-06-28T00:57:07.632Z,61.08
2023-06-28T00:59:34.657Z,61.68
2023-06-28T01:02:03.300Z,61.62
2023-06-28T01:04:30.533Z,59.99
2023-06-28T01:07:01.177Z,60.01
2023-06-28T01:09:29.362Z,60.49
2023-06-28T01:11:56.978Z,60.22
2023-06-28T01:14:24.930Z,60.42
2023-06-28T01:16:55.856Z,61.76
2023-06-28T01:19:24.366Z,62.76
2023-06-28T01:22:01.624Z,61.57
2023-06-28T01:24:29.683Z,60.09
2023-06-28T01:26:59.795Z,59.62
2023-06-28T01:29:28.115Z,59.71
2023-06-28T01:31:56.504Z,59.94
2023-06-28T01:34:25.853Z,60.63
2023-06-28T01:36:54.440Z,61.42
2023-06-28T01:39:21.448Z,61.87
2023-06-28T01:41:48.526Z,61.40
2023-06-28T01:44:17.756Z,60.25
2023-06-28T01:46:44.979Z,59.61
2023-06-28T01:49:12.075Z,59.32
2023-06-28T01:51:40.625Z,59.81
2023-06-28T01:54:09.008Z,60.62
2023-06-28T01:56:36.555Z,61.81
2023-06-28T01:59:03.821Z,61.41
2023-06-28T02:01:31.605Z,59.96
2023-06-28T02:04:00.627Z,59.57
2023-06-28T02:06:28.207Z,58.73
2023-06-28T02:08:55.365Z,59.96
2023-06-28T02:11:22.348Z,60.65
2023-06-28T02:13:49.364Z,62.11
2023-06-28T02:16:16.636Z,61.32
2023-06-28T02:18:46.623Z,60.29
2023-06-28T02:21:15.602Z,59.83
2023-06-28T02:23:43.135Z,59.83
2023-06-28T02:26:10.171Z,60.89
2023-06-28T02:28:37.867Z,61.78
2023-06-28T02:31:04.954Z,62.39
2023-06-28T02:33:32.181Z,62.17
2023-06-28T02:35:59.504Z,60.42
2023-06-28T02:38:26.675Z,59.65
2023-06-28T02:40:53.839Z,60.27
2023-06-28T02:43:20.764Z,60.84
2023-06-28T02:45:50.034Z,61.67
2023-06-28T02:48:17.267Z,62.45
2023-06-28T02:50:45.593Z,62.13
2023-06-28T02:53:16.027Z,61.40
2023-06-28T02:55:43.036Z,60.51
2023-06-28T02:58:10.740Z,60.16
2023-06-28T03:00:39.981Z,60.46
2023-06-28T03:03:11.118Z,61.02
2023-06-28T03:05:43.871Z,61.45
2023-06-28T03:08:11.206Z,61.23
2023-06-28T03:10:39.119Z,60.10
2023-06-28T03:13:07.261Z,59.38
2023-06-28T03:15:35.888Z,59.60
2023-06-28T03:18:03.400Z,59.73
2023-06-28T03:20:33.248Z,60.39
2023-06-28T03:23:00.367Z,60.38
2023-06-28T03:25:27.378Z,62.14
2023-06-28T03:27:54.364Z,61.00
2023-06-28T03:30:21.579Z,59.61
2023-06-28T03:32:49.327Z,58.71
2023-06-28T03:35:17.283Z,59.02
2023-06-28T03:37:54.061Z,59.74
2023-06-28T03:40:21.257Z,60.36
2023-06-28T03:42:49.384Z,61.68
2023-06-28T03:45:17.156Z,60.40
2023-06-28T03:47:47.288Z,58.55
2023-06-28T03:50:14.508Z,58.77
2023-06-28T03:52:42.497Z,59.37
2023-06-28T03:55:10.166Z,59.40
2023-06-28T03:57:37.193Z,60.14
2023-06-28T04:00:08.542Z,59.67
2023-06-28T04:02:41.180Z,60.30
2023-06-28T04:05:08.496Z,60.26
2023-06-28T04:07:35.832Z,58.90
2023-06-28T04:10:03.983Z,58.11
2023-06-28T04:12:31.237Z,58.51
2023-06-28T04:14:58.269Z,58.29
2023-06-28T04:17:25.506Z,58.30
2023-06-28T04:19:53.027Z,58.54
2023-06-28T04:22:20.297Z,59.58
2023-06-28T04:24:47.743Z,59.40
2023-06-28T04:27:15.686Z,57.58
2023-06-28T04:29:42.916Z,56.91
2023-06-28T04:32:22.636Z,57.14
2023-06-28T04:34:53.925Z,57.75
2023-06-28T04:37:21.534Z,58.04
2023-06-28T04:39:48.551Z,58.80
2023-06-28T04:42:16.426Z,59.21
2023-06-28T04:44:49.448Z,58.18
2023-06-28T04:47:17.027Z,56.28
2023-06-28T04:49:48.998Z,55.74
2023-06-28T04:52:17.189Z,55.47
2023-06-28T04:54:44.208Z,55.35
2023-06-28T04:57:11.913Z,55.59
2023-06-28T04:59:39.560Z,55.54
2023-06-28T05:02:06.852Z,56.23
2023-06-28T05:04:34.505Z,56.56
2023-06-28T05:07:05.102Z,56.51
2023-06-28T05:09:36.027Z,54.51
2023-06-28T05:12:03.249Z,53.11
2023-06-28T05:14:31.165Z,53.58
2023-06-28T05:16:58.392Z,53.78
2023-06-28T05:19:26.116Z,53.17
2023-06-28T05:21:54.737Z,53.42
2023-06-28T05:24:22.003Z,53.82
2023-06-28T05:26:49.008Z,53.71
2023-06-28T05:29:16.084Z,53.36
2023-06-28T05:31:43.776Z,54.09
2023-06-28T05:34:12.380Z,54.21
2023-06-28T05:36:40.704Z,54.10
2023-06-28T05:39:09.762Z,52.83
2023-06-28T05:41:38.406Z,51.77
2023-06-28T05:44:05.364Z,51.12
2023-06-28T05:46:33.383Z,50.87
2023-06-28T05:49:02.217Z,51.24
2023-06-28T05:51:29.719Z,50.77
2023-06-28T05:53:56.902Z,50.99
2023-06-28T05:56:25.147Z,50.24
2023-06-28T05:58:52.482Z,50.55
2023-06-28T06:01:19.594Z,50.43
2023-06-28T06:03:46.841Z,50.38
2023-06-28T06:06:13.999Z,50.85
2023-06-28T06:08:41.699Z,50.45
2023-06-28T06:11:08.763Z,50.85
2023-06-28T06:13:35.722Z,49.49
2023-06-28T06:16:03.004Z,48.55
2023-06-28T06:18:30.298Z,48.62
2023-06-28T06:20:57.479Z,48.36
2023-06-28T06:23:24.970Z,48.83
2023-06-28T06:25:53.330Z,49.08
2023-06-28T06:28:20.357Z,49.34
2023-06-28T06:30:47.711Z,48.91
2023-06-28T06:33:15.264Z,50.16
2023-06-28T06:35:42.472Z,49.68
2023-06-28T06:38:09.546Z,49.24
2023-06-28T06:40:38.377Z,48.55
2023-06-28T06:43:05.608Z,47.94
2023-06-28T06:45:32.614Z,49.05
2023-06-28T06:47:59.796Z,48.85
2023-06-28T06:50:26.928Z,48.12
2023-06-28T06:52:54.079Z,48.10
2023-06-28T06:55:21.076Z,46.80
2023-06-28T06:57:48.318Z,46.36
2023-06-28T07:00:17.622Z,47.22
2023-06-28T07:02:44.799Z,46.47
2023-06-28T07:05:12.218Z,45.19
2023-06-28T07:07:39.496Z,44.76
2023-06-28T07:10:08.037Z,45.30
2023-06-28T07:12:36.699Z,45.03
2023-06-28T07:15:04.273Z,45.57
2023-06-28T07:17:32.394Z,44.30
2023-06-28T07:19:59.649Z,45.52
2023-06-28T07:22:28.366Z,45.06
2023-06-28T07:24:55.598Z,44.66
2023-06-28T07:27:22.562Z,45.84
2023-06-28T07:29:49.700Z,45.25
2023-06-28T07:32:16.747Z,43.97
2023-06-28T07:34:44.040Z,44.05
2023-06-28T07:37:11.138Z,43.75
2023-06-28T07:39:38.100Z,43.73
2023-06-28T07:42:05.355Z,45.43
2023-06-28T07:44:32.399Z,44.70
2023-06-28T07:46:59.374Z,44.85
2023-06-28T07:49:26.501Z,43.41
2023-06-28T07:51:54.644Z,43.40
2023-06-28T07:54:33.160Z,44.85
2023-06-28T07:57:02.109Z,43.27
2023-06-28T07:59:29.478Z,43.29
2023-06-28T08:01:56.614Z,42.03
2023-06-28T08:04:24.270Z,42.53
2023-06-28T08:06:51.367Z,42.60
2023-06-28T08:09:18.830Z,42.62
2023-06-28T08:11:47.068Z,41.79
2023-06-28T08:14:14.121Z,42.80
2023-06-28T08:16:41.267Z,41.90
2023-06-28T08:19:08.414Z,42.55
2023-06-28T08:21:37.832Z,40.80
2023-06-28T08:24:05.025Z,40.60
2023-06-28T08:26:32.377Z,42.39
2023-06-28T08:29:00.980Z,41.47
2023-06-28T08:31:29.952Z,40.77
2023-06-28T08:33:58.495Z,40.70
2023-06-28T08:36:25.471Z,40.88
2023-06-28T08:38:52.447Z,41.53
2023-06-28T08:41:19.728Z,42.18
2023-06-28T08:43:48.761Z,40.90
2023-06-28T08:46:15.847Z,39.81
2023-06-28T08:48:43.442Z,40.78
2023-06-28T08:51:10.577Z,40.27
2023-06-28T08:53:37.671Z,41.13
2023-06-28T08:56:04.859Z,42.62
2023-06-28T08:58:32.406Z,42.97
2023-06-28T09:01:00.348Z,41.01
2023-06-28T09:03:27.457Z,41.04
2023-06-28T09:05:54.835Z,41.46
2023-06-28T09:08:21.831Z,41.59
2023-06-28T09:10:49.631Z,42.35
2023-06-28T09:13:21.161Z,42.45
2023-06-28T09:15:48.917Z,43.36
2023-06-28T09:18:16.593Z,44.36
2023-06-28T09:20:51.265Z,44.47
2023-06-28T09:23:28.490Z,44.18
2023-06-28T09:25:55.478Z,45.63
2023-06-28T09:28:35.646Z,45.99
2023-06-28T09:31:06.593Z,44.45
2023-06-28T09:33:33.861Z,43.60
2023-06-28T09:36:02.233Z,44.17
2023-06-28T09:38:29.342Z,43.02
2023-06-28T09:41:01.070Z,42.78
2023-06-28T09:43:32.064Z,42.31
2023-06-28T09:46:17.086Z,40.87
2023-06-28T09:48:53.671Z,41.29
2023-06-28T09:51:21.611Z,41.27
2023-06-28T09:53:54.259Z,42.42
2023-06-28T09:56:22.906Z,43.00
2023-06-28T09:58:50.598Z,44.06
2023-06-28T10:01:18.041Z,43.14
2023-06-28T10:03:45.919Z,42.47
2023-06-28T10:06:13.125Z,42.05
2023-06-28T10:08:40.512Z,42.27
2023-06-28T10:11:11.951Z,40.88
2023-06-28T10:13:41.614Z,41.84
2023-06-28T10:16:16.114Z,42.46
2023-06-28T10:18:44.139Z,41.89
2023-06-28T10:21:11.501Z,41.22
2023-06-28T10:23:41.767Z,42.29
2023-06-28T10:26:09.178Z,43.43
2023-06-28T10:28:36.749Z,43.63
2023-06-28T10:31:04.107Z,44.63
2023-06-28T10:33:34.860Z,45.27
2023-06-28T10:36:02.234Z,46.82
2023-06-28T10:38:38.816Z,47.57
2023-06-28T10:41:06.560Z,47.06
2023-06-28T10:43:33.951Z,46.30
2023-06-28T10:46:04.922Z,45.11
2023-06-28T10:48:33.086Z,43.24
2023-06-28T10:51:01.614Z,42.81
2023-06-28T10:53:29.717Z,42.17
2023-06-28T10:56:12.490Z,41.63
2023-06-28T10:58:42.861Z,41.40
2023-06-28T11:01:11.254Z,43.31
2023-06-28T11:03:49.056Z,42.72
2023-06-28T11:06:16.199Z,43.10
2023-06-28T11:08:44.938Z,42.86
2023-06-28T11:11:22.692Z,43.32
2023-06-28T11:13:50.686Z,46.04
2023-06-28T11:16:19.356Z,46.43
2023-06-28T11:18:46.923Z,48.67
2023-06-28T11:21:16.469Z,49.30
2023-06-28T11:23:47.570Z,50.44
2023-06-28T11:26:35.189Z,48.96
2023-06-28T11:29:02.215Z,48.63
2023-06-28T11:31:40.005Z,50.20
2023-06-28T11:34:10.627Z,51.31
2023-06-28T11:36:38.339Z,51.20
2023-06-28T11:39:06.613Z,50.91
2023-06-28T11:41:35.819Z,51.87
2023-06-28T11:44:04.691Z,52.55
2023-06-28T11:46:35.185Z,52.68
2023-06-28T11:49:02.630Z,52.92
2023-06-28T11:51:31.170Z,53.74
2023-06-28T11:53:58.438Z,53.75
2023-06-28T11:56:53.883Z,52.93
2023-06-28T11:59:22.452Z,52.02
2023-06-28T12:02:00.623Z,52.45
2023-06-28T12:04:27.783Z,52.77
2023-06-28T12:06:55.095Z,52.50
2023-06-28T12:09:29.435Z,53.01
2023-06-28T12:12:02.540Z,53.29
2023-06-28T12:14:32.100Z,50.72
2023-06-28T12:16:59.158Z,51.83
2023-06-28T12:19:30.834Z,51.07
2023-06-28T12:22:01.681Z,50.33
2023-06-28T12:24:28.851Z,51.10
2023-06-28T12:26:57.893Z,48.84
2023-06-28T12:29:32.803Z,49.31
2023-06-28T12:32:12.543Z,48.64
2023-06-28T12:34:39.927Z,47.92
2023-06-28T12:37:09.129Z,46.84
2023-06-28T12:39:38.023Z,47.62
2023-06-28T12:42:09.802Z,46.91
2023-06-28T12:45:02.451Z,44.61
2023-06-28T12:47:32.072Z,44.87
2023-06-28T12:49:59.693Z,44.45
2023-06-28T12:52:27.768Z,44.52
2023-06-28T12:54:55.827Z,45.56
2023-06-28T12:57:23.564Z,45.03
2023-06-28T12:59:51.676Z,43.09
2023-06-28T13:02:19.171Z,42.14
2023-06-28T13:04:46.337Z,42.42
2023-06-28T13:07:13.521Z,42.45
2023-06-28T13:09:42.536Z,40.46
2023-06-28T13:12:10.176Z,41.00
2023-06-28T13:14:37.706Z,40.52
2023-06-28T13:17:06.993Z,40.48
2023-06-28T13:19:34.940Z,41.59
2023-06-28T13:22:01.868Z,39.60
2023-06-28T13:24:29.140Z,40.07
2023-06-28T13:26:57.796Z,39.66
2023-06-28T13:29:26.292Z,38.53
2023-06-28T13:31:53.347Z,38.68
2023-06-28T13:34:20.558Z,39.71
2023-06-28T13:36:48.703Z,40.04
2023-06-28T13:39:16.195Z,39.26
2023-06-28T13:41:44.364Z,38.81
2023-06-28T13:44:11.763Z,38.95
2023-06-28T13:46:39.266Z,38.75
2023-06-28T13:49:06.862Z,39.30
2023-06-28T13:51:34.266Z,39.36
2023-06-28T13:54:01.475Z,38.41
2023-06-28T13:56:28.966Z,39.21
2023-06-28T13:58:56.331Z,39.96
2023-06-28T14:01:23.648Z,38.58
2023-06-28T14:03:50.846Z,38.83
2023-06-28T14:06:17.867Z,39.13
2023-06-28T14:08:45.099Z,39.66
2023-06-28T14:11:12.149Z,38.40
2023-06-28T14:13:39.770Z,39.74
2023-06-28T14:16:06.787Z,39.81
2023-06-28T14:18:33.992Z,40.16
2023-06-28T14:21:01.237Z,42.37
2023-06-28T14:23:28.702Z,44.42
2023-06-28T14:25:55.735Z,44.05
2023-06-28T14:28:23.335Z,45.29
2023-06-28T14:30:51.421Z,44.85
2023-06-28T14:33:18.488Z,44.62
2023-06-28T14:35:45.894Z,44.30
2023-06-28T14:38:13.213Z,43.06
2023-06-28T14:40:40.241Z,41.32
2023-06-28T14:43:09.169Z,42.13
2023-06-28T14:45:36.205Z,42.59
2023-06-28T14:48:03.621Z,41.81
2023-06-28T14:50:31.122Z,42.20
2023-06-28T14:52:58.390Z,41.83
2023-06-28T14:55:25.736Z,41.71
2023-06-28T14:57:52.827Z,41.87
2023-06-28T15:00:19.994Z,42.83
2023-06-28T15:02:47.446Z,43.80
2023-06-28T15:05:14.618Z,43.32
2023-06-28T15:07:42.698Z,43.05
2023-06-28T15:10:10.229Z,42.72
2023-06-28T15:12:37.709Z,43.02
2023-06-28T15:15:05.805Z,43.18
2023-06-28T15:17:33.074Z,42.44
2023-06-28T15:20:00.333Z,42.07
2023-06-28T15:22:27.472Z,41.72
2023-06-28T15:24:54.619Z,42.24
2023-06-28T15:27:21.650Z,42.49
2023-06-28T15:29:48.676Z,41.64
2023-06-28T15:32:15.871Z,42.05
2023-06-28T15:34:42.895Z,42.70
2023-06-28T15:37:10.036Z,43.21
2023-06-28T15:39:37.604Z,43.05
2023-06-28T15:42:05.331Z,43.33
2023-06-28T15:44:32.524Z,43.75
2023-06-28T15:46:59.781Z,43.00
2023-06-28T15:49:29.039Z,42.72
2023-06-28T15:51:57.198Z,42.37
2023-06-28T15:54:24.156Z,42.42
2023-06-28T15:56:54.373Z,43.12
2023-06-28T15:59:21.352Z,43.26
2023-06-28T16:01:48.380Z,43.77
2023-06-28T16:04:15.621Z,43.36
2023-06-28T16:06:43.006Z,44.07
2023-06-28T16:09:10.206Z,44.30
2023-06-28T16:11:37.477Z,44.03
2023-06-28T16:14:04.801Z,43.96
2023-06-28T16:16:32.003Z,44.50
2023-06-28T16:18:58.933Z,44.50
2023-06-28T16:21:25.949Z,45.09
2023-06-28T16:23:52.930Z,45.22
2023-06-28T16:26:20.459Z,45.54
2023-06-28T16:28:49.862Z,45.53
2023-06-28T16:31:18.120Z,46.03
2023-06-28T16:33:45.076Z,46.32
2023-06-28T16:36:12.168Z,46.30
2023-06-28T16:38:40.979Z,46.98
2023-06-28T16:41:07.939Z,46.55
2023-06-28T16:43:35.118Z,47.29
2023-06-28T16:46:02.271Z,47.12
2023-06-28T16:48:29.633Z,47.21
2023-06-28T16:50:56.668Z,48.05
2023-06-28T16:53:23.745Z,47.38
2023-06-28T16:55:50.967Z,47.50
2023-06-28T16:58:18.517Z,47.60
2023-06-28T17:00:46.183Z,47.84
2023-06-28T17:03:13.604Z,48.40
2023-06-28T17:05:47.324Z,48.68
2023-06-28T17:08:16.179Z,48.49
2023-06-28T17:10:44.919Z,48.59
2023-06-28T17:13:12.525Z,48.86
2023-06-28T17:15:39.502Z,48.98
2023-06-28T17:18:06.713Z,49.14
2023-06-28T17:20:33.736Z,49.14
2023-06-28T17:23:00.923Z,49.53
2023-06-28T17:25:32.672Z,49.66
2023-06-28T17:27:59.801Z,49.75
2023-06-28T17:30:27.022Z,49.68
2023-06-28T17:32:54.276Z,50.25
2023-06-28T17:35:21.416Z,50.54
2023-06-28T17:37:48.399Z,50.84
2023-06-28T17:40:15.354Z,51.06
2023-06-28T17:42:42.620Z,51.10
2023-06-28T17:45:10.257Z,51.36
2023-06-28T17:47:37.779Z,51.57
2023-06-28T17:50:05.460Z,50.82
2023-06-28T17:52:32.772Z,51.83
2023-06-28T17:55:02.248Z,52.28
2023-06-28T17:57:30.034Z,51.82
2023-06-28T17:59:57.183Z,52.94
2023-06-28T18:02:25.191Z,53.61
2023-06-28T18:04:52.281Z,53.10
2023-06-28T18:07:19.575Z,53.47
2023-06-28T18:09:46.566Z,53.45
2023-06-28T18:12:14.169Z,53.70
2023-06-28T18:14:43.668Z,54.42
2023-06-28T18:17:11.326Z,54.42
2023-06-28T18:19:40.160Z,54.15
2023-06-28T18:22:07.635Z,53.78
2023-06-28T18:24:35.208Z,53.73
2023-06-28T18:27:02.163Z,54.05
2023-06-28T18:29:30.399Z,54.02
2023-06-28T18:31:57.530Z,53.81
2023-06-28T18:34:24.601Z,53.47
2023-06-28T18:36:51.592Z,53.49
2023-06-28T18:39:19.840Z,52.70
2023-06-28T18:41:46.856Z,53.16
2023-06-28T18:44:15.532Z,53.21
2023-06-28T18:46:42.578Z,53.08
2023-06-28T18:49:09.599Z,52.99
2023-06-28T18:51:37.781Z,52.57
2023-06-28T18:54:05.806Z,52.88
2023-06-28T18:56:32.973Z,53.22
2023-06-28T18:59:02.202Z,52.78
2023-06-28T19:01:29.477Z,52.89
2023-06-28T19:03:58.802Z,52.80
2023-06-28T19:06:26.082Z,52.97
2023-06-28T19:08:54.123Z,53.17
2023-06-28T19:11:21.068Z,52.90
2023-06-28T19:13:48.222Z,52.97
2023-06-28T19:16:15.555Z,53.00
2023-06-28T19:18:42.532Z,52.65
2023-06-28T19:21:11.714Z,52.09
2023-06-28T19:23:40.985Z,52.18
2023-06-28T19:26:08.826Z,51.97
2023-06-28T19:28:38.356Z,51.83
2023-06-28T19:31:05.789Z,51.71
2023-06-28T19:33:33.218Z,51.88
2023-06-28T19:36:00.288Z,51.85
2023-06-28T19:38:28.289Z,51.61
2023-06-28T19:40:55.307Z,51.75
2023-06-28T19:43:22.833Z,51.81
2023-06-28T19:45:49.875Z,52.02
2023-06-28T19:48:17.662Z,52.17
2023-06-28T19:52:19.208Z,52.31
2023-06-28T19:54:46.237Z,52.06
2023-06-28T19:57:13.748Z,51.87
2023-06-28T19:59:42.695Z,52.43
2023-06-28T20:02:09.817Z,52.17
2023-06-28T20:04:37.140Z,52.08
2023-06-28T20:07:05.150Z,51.95
2023-06-28T20:09:32.324Z,52.03
2023-06-28T20:11:59.588Z,52.16
2023-06-28T20:14:26.860Z,52.05
2023-06-28T20:16:54.200Z,51.82
2023-06-28T20:19:21.696Z,52.05
2023-06-28T20:21:48.662Z,52.12
2023-06-28T20:24:16.133Z,52.11
2023-06-28T20:26:43.244Z,52.45
2023-06-28T20:29:10.682Z,52.28
2023-06-28T20:31:39.116Z,51.93
2023-06-28T20:34:08.836Z,52.22
2023-06-28T20:36:35.961Z,52.10
2023-06-28T20:39:05.664Z,52.28
2023-06-28T20:41:33.097Z,52.10
2023-06-28T20:44:00.267Z,52.29
2023-06-28T20:46:27.473Z,52.68
2023-06-28T20:48:55.132Z,52.63
2023-06-28T20:51:22.879Z,52.77
2023-06-28T20:53:49.882Z,52.90
2023-06-28T20:56:18.088Z,53.14
2023-06-28T20:58:47.631Z,53.34
2023-06-28T21:01:19.097Z,53.32
2023-06-28T21:03:51.416Z,53.16
2023-06-28T21:06:20.171Z,52.94
2023-06-28T21:08:47.725Z,53.12
2023-06-28T21:11:16.702Z,53.35
2023-06-28T21:13:43.868Z,53.52
2023-06-28T21:16:11.180Z,53.23
2023-06-28T21:18:40.703Z,53.52
2023-06-28T21:21:07.755Z,53.76
2023-06-28T21:23:38.928Z,53.69
2023-06-28T21:26:06.854Z,53.96
2023-06-28T21:28:34.159Z,54.00
2023-06-28T21:31:01.219Z,53.85
2023-06-28T21:33:28.287Z,54.96
2023-06-28T21:35:55.226Z,54.79
2023-06-28T21:38:22.207Z,53.37
2023-06-28T21:40:49.233Z,53.19
2023-06-28T21:43:16.630Z,52.79
2023-06-28T21:45:43.869Z,52.75
2023-06-28T21:48:11.064Z,53.17
2023-06-28T21:50:38.625Z,53.35
2023-06-28T21:53:05.595Z,54.23
2023-06-28T21:55:32.859Z,54.78
2023-06-28T21:58:00.748Z,54.81
2023-06-28T22:00:30.105Z,55.01
2023-06-28T22:02:57.146Z,55.62
2023-06-28T22:05:24.529Z,56.63
2023-06-28T22:07:53.158Z,55.00
2023-06-28T22:10:20.238Z,53.11
2023-06-28T22:12:48.674Z,53.08
2023-06-28T22:15:17.198Z,53.02
2023-06-28T22:17:45.057Z,53.62
2023-06-28T22:20:13.057Z,54.16
2023-06-28T22:22:40.094Z,54.17
2023-06-28T22:25:07.296Z,54.52
2023-06-28T22:27:35.309Z,54.74
2023-06-28T22:30:02.929Z,55.31
2023-06-28T22:32:30.389Z,55.42
2023-06-28T22:34:57.391Z,55.68
2023-06-28T22:37:24.390Z,55.63
2023-06-28T22:39:51.445Z,56.46
2023-06-28T22:42:19.086Z,56.90
2023-06-28T22:44:46.183Z,56.81
2023-06-28T22:47:14.577Z,54.54
2023-06-28T22:49:42.831Z,53.84
2023-06-28T22:52:10.187Z,53.89
2023-06-28T22:54:38.120Z,54.03
2023-06-28T22:57:05.557Z,54.52
2023-06-28T22:59:33.289Z,54.71
2023-06-28T23:02:00.375Z,54.84
2023-06-28T23:04:27.484Z,55.12
2023-06-28T23:06:54.642Z,55.18
2023-06-28T23:09:22.531Z,55.68
2023-06-28T23:11:53.033Z,56.29
2023-06-28T23:14:20.342Z,55.51
2023-06-28T23:16:47.459Z,53.68
2023-06-28T23:19:14.838Z,53.13
2023-06-28T23:21:44.652Z,53.05
2023-06-28T23:24:11.721Z,53.47
2023-06-28T23:26:40.728Z,53.42
2023-06-28T23:29:08.035Z,53.83
2023-06-28T23:31:34.997Z,54.43
2023-06-28T23:34:02.303Z,54.83
2023-06-28T23:36:30.425Z,55.24
2023-06-28T23:38:57.415Z,55.67
2023-06-28T23:41:24.351Z,56.04
2023-06-28T23:43:51.644Z,55.68
2023-06-28T23:46:18.614Z,54.14
2023-06-28T23:48:46.000Z,53.40
2023-06-28T23:51:13.252Z,53.39
2023-06-28T23:53:40.786Z,53.98
2023-06-28T23:56:10.161Z,54.35
2023-06-28T23:58:38.450Z,54.79
